Terminal Aerodrome Forecast
Issued by NWS

Home | Current Version | Previous Version | Text Only | Print | Product List | Glossary On
Versions: 1 2 3 4 5 6 7 8 9 10 11 12 13 14 15 16 17 18 19 20 21 22 23 24 25 26 27 28
751
FTUS45 KGGW 281130
TAFGDV
TAF
KGDV 281130Z 2812/2912 29008KT P6SM SCT090
     FM281500 30012KT P6SM SCT100
     FM281700 31018G27KT P6SM SCT090
     FM290300 34010KT P6SM SKC
     FM290900 32006KT P6SM FEW110=

USA.gov is the U.S. government's official web portal to all federal, state and local government web resources and services.